Arthur City, Texas
Current Conditions -  °F | °C
As of 4:55 PM on Friday 31 Oct 2014 (Local Time) from KHHW Reporting Station
Clear Clear  
Wind Chill: 62°   Ceiling: Unl
Heat Index: 62°   Visibility: 10mi
Dew Point: 36°   Wind: 14mph
Humidity: 38%   Direction: 10°N
Pressure: 30.3"   Gusts: 20mph
Location:  33.87°N, 95.51°W
Report Text: KHHW 312155Z AUTO 01012G17KT 10SM CLR 16/02 A3030 RMK AO2 T01640021
Loading
Personal Weather Stations






























Interactive Weather Map
Tropical Storm Tracking
New forecast layout! Learn more

10-Day Weather Forecast

Advertisements
Track Severe Weather on mobile